createdAt,value
2022-11-19T00:01:06.165Z,8.89
2022-11-19T00:03:37.609Z,9.85
2022-11-19T00:06:07.838Z,9.75
2022-11-19T00:08:35.352Z,9.91
2022-11-19T00:11:12.566Z,9.52
2022-11-19T00:13:40.284Z,9.69
2022-11-19T00:16:08.361Z,8.31
2022-11-19T00:18:35.470Z,9.33
2022-11-19T00:21:12.747Z,9.41
2022-11-19T00:23:40.126Z,8.76
2022-11-19T00:26:14.438Z,8.08
2022-11-19T00:28:41.926Z,7.57
2022-11-19T00:31:10.735Z,8.63
2022-11-19T00:33:38.267Z,7.13
2022-11-19T00:36:06.077Z,7.57
2022-11-19T00:38:33.643Z,7.60
2022-11-19T00:41:00.781Z,7.49
2022-11-19T00:43:46.491Z,7.34
2022-11-19T00:46:17.763Z,7.57
2022-11-19T00:48:45.203Z,8.26
2022-11-19T00:51:12.834Z,7.63
2022-11-19T00:53:40.282Z,7.26
2022-11-19T00:56:08.477Z,7.75
2022-11-19T00:58:35.770Z,7.19
2022-11-19T01:01:03.223Z,7.43
2022-11-19T01:03:30.951Z,7.47
2022-11-19T01:05:58.075Z,7.58
2022-11-19T01:08:25.570Z,8.53
2022-11-19T01:10:52.688Z,9.04
2022-11-19T01:13:35.026Z,9.46
2022-11-19T01:16:03.377Z,10.00
2022-11-19T01:18:30.478Z,8.89
2022-11-19T01:20:57.593Z,9.10
2022-11-19T01:23:24.965Z,7.67
2022-11-19T01:25:52.328Z,8.63
2022-11-19T01:28:19.453Z,9.13
2022-11-19T01:30:46.830Z,8.08
2022-11-19T01:33:13.965Z,7.65
2022-11-19T01:36:00.153Z,8.64
2022-11-19T01:38:27.844Z,8.62
2022-11-19T01:40:55.621Z,8.42
2022-11-19T01:43:41.210Z,8.01
2022-11-19T01:46:09.043Z,7.03
2022-11-19T01:48:36.911Z,8.04
2022-11-19T01:51:05.196Z,8.29
2022-11-19T01:53:33.062Z,8.19
2022-11-19T01:56:03.971Z,8.74
2022-11-19T01:58:31.986Z,8.48
2022-11-19T02:00:59.380Z,8.53
2022-11-19T02:03:30.589Z,9.15
2022-11-19T02:05:58.131Z,8.79
2022-11-19T02:08:35.804Z,8.31
2022-11-19T02:11:21.668Z,7.76
2022-11-19T02:13:58.893Z,7.97
2022-11-19T02:16:39.946Z,7.90
2022-11-19T02:19:27.266Z,8.80
2022-11-19T02:21:57.645Z,8.23
2022-11-19T02:24:42.854Z,9.21
2022-11-19T02:27:19.127Z,8.97
2022-11-19T02:29:48.934Z,9.48
2022-11-19T02:32:16.774Z,9.85
2022-11-19T02:34:46.372Z,9.85
2022-11-19T02:37:17.211Z,9.55
2022-11-19T02:39:48.793Z,10.35
2022-11-19T02:42:22.771Z,10.65
2022-11-19T02:45:00.295Z,10.25
2022-11-19T02:47:30.433Z,9.99
2022-11-19T02:49:59.574Z,10.40
2022-11-19T02:52:26.800Z,8.82
2022-11-19T02:54:53.925Z,7.82
2022-11-19T02:57:21.281Z,8.91
2022-11-19T03:00:17.477Z,9.38
2022-11-19T03:03:30.085Z,9.61
2022-11-19T03:06:01.613Z,9.64
2022-11-19T03:08:29.000Z,10.29
2022-11-19T03:11:02.090Z,10.53
2022-11-19T03:14:08.386Z,10.88
2022-11-19T03:16:43.205Z,11.45
2022-11-19T03:19:16.940Z,11.08
2022-11-19T03:22:07.285Z,11.29
2022-11-19T03:24:36.520Z,9.56
2022-11-19T03:27:06.719Z,9.89
2022-11-19T03:29:35.197Z,10.14
2022-11-19T03:32:04.631Z,9.34
2022-11-19T03:34:31.753Z,9.46
2022-11-19T03:36:59.625Z,9.94
2022-11-19T03:39:26.970Z,9.81
2022-11-19T03:41:54.181Z,10.46
2022-11-19T03:44:25.948Z,10.31
2022-11-19T03:46:54.815Z,10.29
2022-11-19T03:49:22.694Z,10.35
2022-11-19T03:52:03.661Z,10.61
2022-11-19T03:54:31.026Z,10.99
2022-11-19T03:56:58.192Z,10.83
2022-11-19T03:59:29.578Z,11.01
2022-11-19T04:01:58.628Z,10.45
2022-11-19T04:04:38.247Z,9.91
2022-11-19T04:07:05.361Z,10.73
2022-11-19T04:09:32.777Z,11.16
2022-11-19T04:12:00.027Z,11.39
2022-11-19T04:14:27.189Z,11.39
2022-11-19T04:16:54.554Z,11.40
2022-11-19T04:19:22.186Z,11.49
2022-11-19T04:21:49.610Z,11.43
2022-11-19T04:24:17.133Z,11.42
2022-11-19T04:26:44.268Z,11.57
2022-11-19T04:29:11.406Z,11.64
2022-11-19T04:31:38.800Z,11.15
2022-11-19T04:34:06.019Z,11.34
2022-11-19T04:36:33.117Z,11.32
2022-11-19T04:39:00.602Z,11.56
2022-11-19T04:41:27.700Z,11.81
2022-11-19T04:43:58.596Z,11.56
2022-11-19T04:46:29.229Z,11.37
2022-11-19T04:48:56.490Z,11.38
2022-11-19T04:51:23.713Z,11.48
2022-11-19T04:53:51.072Z,11.55
2022-11-19T04:56:18.226Z,11.55
2022-11-19T04:58:45.334Z,11.25
2022-11-19T05:01:12.775Z,11.42
2022-11-19T05:03:41.232Z,11.73
2022-11-19T05:06:09.848Z,11.63
2022-11-19T05:08:37.257Z,11.61
2022-11-19T05:11:04.455Z,11.78
2022-11-19T05:13:31.570Z,11.47
2022-11-19T05:15:58.930Z,11.57
2022-11-19T05:18:26.069Z,11.45
2022-11-19T05:20:53.169Z,11.11
2022-11-19T05:23:21.095Z,10.95
2022-11-19T05:25:48.231Z,10.89
2022-11-19T05:28:15.465Z,11.36
2022-11-19T05:30:42.850Z,10.97
2022-11-19T05:33:10.073Z,11.17
2022-11-19T05:35:37.248Z,10.91
2022-11-19T05:38:04.673Z,10.93
2022-11-19T05:40:31.797Z,11.11
2022-11-19T05:43:03.298Z,11.30
2022-11-19T05:45:30.682Z,11.62
2022-11-19T05:47:57.885Z,11.54
2022-11-19T05:50:24.998Z,11.66
2022-11-19T05:52:52.392Z,11.46
2022-11-19T05:55:20.745Z,11.40
2022-11-19T05:57:47.860Z,11.50
2022-11-19T06:00:16.344Z,11.15
2022-11-19T06:02:43.798Z,11.04
2022-11-19T06:05:11.006Z,11.36
2022-11-19T06:07:38.289Z,11.35
2022-11-19T06:10:05.931Z,11.20
2022-11-19T06:12:33.161Z,10.89
2022-11-19T06:15:01.998Z,10.85
2022-11-19T06:17:29.460Z,9.75
2022-11-19T06:19:56.553Z,9.88
2022-11-19T06:22:24.054Z,10.16
2022-11-19T06:24:51.502Z,10.56
2022-11-19T06:27:18.607Z,10.17
2022-11-19T06:29:45.838Z,10.41
2022-11-19T06:32:13.214Z,10.34
2022-11-19T06:34:40.349Z,10.49
2022-11-19T06:37:07.473Z,10.49
2022-11-19T06:39:34.873Z,10.28
2022-11-19T06:42:28.258Z,10.33
2022-11-19T06:44:55.812Z,10.58
2022-11-19T06:47:22.930Z,10.32
2022-11-19T06:49:50.027Z,9.96
2022-11-19T06:52:17.390Z,10.25
2022-11-19T06:54:44.591Z,9.59
2022-11-19T06:57:11.705Z,9.89
2022-11-19T06:59:39.167Z,10.37
2022-11-19T07:02:06.870Z,10.17
2022-11-19T07:04:34.036Z,10.62
2022-11-19T07:07:01.486Z,10.15
2022-11-19T07:09:28.669Z,9.11
2022-11-19T07:11:55.785Z,9.48
2022-11-19T07:14:23.168Z,8.19
2022-11-19T07:16:50.314Z,7.12
2022-11-19T07:19:17.772Z,8.03
2022-11-19T07:21:45.352Z,7.36
2022-11-19T07:24:15.608Z,8.60
2022-11-19T07:26:42.730Z,8.30
2022-11-19T07:29:10.641Z,7.29
2022-11-19T07:31:37.760Z,8.45
2022-11-19T07:34:08.270Z,9.14
2022-11-19T07:36:35.888Z,9.41
2022-11-19T07:39:03.776Z,8.77
2022-11-19T07:41:49.590Z,8.18
2022-11-19T07:44:16.962Z,8.45
2022-11-19T07:46:44.065Z,7.95
2022-11-19T07:49:11.306Z,7.61
2022-11-19T07:51:38.710Z,7.28
2022-11-19T07:54:05.842Z,7.32
2022-11-19T07:56:32.952Z,7.31
2022-11-19T07:59:00.607Z,7.74
2022-11-19T08:01:27.830Z,7.85
2022-11-19T08:03:56.772Z,8.59
2022-11-19T08:06:24.932Z,8.49
2022-11-19T08:08:52.539Z,8.04
2022-11-19T08:11:20.038Z,7.83
2022-11-19T08:13:47.125Z,8.71
2022-11-19T08:16:34.160Z,9.14
2022-11-19T08:19:02.146Z,9.16
2022-11-19T08:21:29.235Z,9.41
2022-11-19T08:23:56.696Z,9.16
2022-11-19T08:26:24.063Z,9.65
2022-11-19T08:28:51.173Z,8.82
2022-11-19T08:31:19.477Z,9.10
2022-11-19T08:33:46.858Z,9.60
2022-11-19T08:36:13.974Z,9.83
2022-11-19T08:38:41.081Z,8.84
2022-11-19T08:41:27.183Z,9.01
2022-11-19T08:43:54.301Z,8.66
2022-11-19T08:46:21.684Z,7.96
2022-11-19T08:48:48.823Z,7.62
2022-11-19T08:51:16.565Z,8.26
2022-11-19T08:53:43.935Z,8.43
2022-11-19T08:56:16.760Z,8.36
2022-11-19T08:58:45.310Z,8.04
2022-11-19T09:01:13.083Z,6.47
2022-11-19T09:03:40.269Z,7.20
2022-11-19T09:06:07.710Z,7.22
2022-11-19T09:08:35.037Z,8.95
2022-11-19T09:11:06.030Z,9.02
2022-11-19T09:13:33.477Z,8.94
2022-11-19T09:16:00.583Z,9.16
2022-11-19T09:18:27.715Z,8.71
2022-11-19T09:20:55.841Z,8.42
2022-11-19T09:23:23.611Z,8.91
2022-11-19T09:25:57.731Z,8.63
2022-11-19T09:28:25.295Z,7.77
2022-11-19T09:31:01.575Z,8.67
2022-11-19T09:33:29.355Z,9.36
2022-11-19T09:35:56.531Z,8.91
2022-11-19T09:38:23.635Z,9.26
2022-11-19T09:40:54.745Z,9.55
2022-11-19T09:43:31.870Z,8.94
2022-11-19T09:46:02.014Z,9.58
2022-11-19T09:48:33.210Z,8.66
2022-11-19T09:51:02.252Z,10.09
2022-11-19T09:53:32.040Z,9.39
2022-11-19T09:55:59.306Z,9.55
2022-11-19T09:58:28.360Z,9.72
2022-11-19T10:00:55.495Z,10.02
2022-11-19T10:03:25.364Z,8.83
2022-11-19T10:06:12.323Z,9.44
2022-11-19T10:08:58.376Z,8.70
2022-11-19T10:11:31.221Z,9.33
2022-11-19T10:14:15.189Z,7.98
2022-11-19T10:16:42.196Z,8.62
2022-11-19T10:19:09.575Z,9.34
2022-11-19T10:21:55.503Z,8.83
2022-11-19T10:24:39.237Z,9.17
2022-11-19T10:27:12.388Z,9.77
2022-11-19T10:29:40.428Z,9.29
2022-11-19T10:32:16.821Z,9.70
2022-11-19T10:34:44.258Z,9.51
2022-11-19T10:37:11.709Z,10.42
2022-11-19T10:39:40.051Z,10.08
2022-11-19T10:42:10.501Z,10.05
2022-11-19T10:44:41.482Z,8.87
2022-11-19T10:47:29.141Z,8.64
2022-11-19T10:49:56.344Z,8.38
2022-11-19T10:52:23.692Z,9.12
2022-11-19T10:54:51.069Z,7.63
2022-11-19T10:57:18.678Z,8.77
2022-11-19T10:59:46.727Z,8.18
2022-11-19T11:02:27.616Z,7.72
2022-11-19T11:04:59.494Z,8.56
2022-11-19T11:07:47.102Z,8.43
2022-11-19T11:10:23.335Z,8.83
2022-11-19T11:13:09.472Z,9.04
2022-11-19T11:15:39.955Z,9.37
2022-11-19T11:18:08.103Z,10.13
2022-11-19T11:20:36.275Z,9.59
2022-11-19T11:23:09.259Z,9.13
2022-11-19T11:25:36.420Z,9.31
2022-11-19T11:28:17.385Z,9.87
2022-11-19T11:30:55.309Z,9.67
2022-11-19T11:33:22.589Z,10.17
2022-11-19T11:35:49.697Z,10.39
2022-11-19T11:38:17.752Z,9.62
2022-11-19T11:44:01.483Z,8.85
2022-11-19T11:46:35.988Z,8.80
2022-11-19T11:49:08.391Z,9.73
2022-11-19T11:51:42.094Z,9.60
2022-11-19T11:54:18.424Z,10.34
2022-11-19T11:56:46.220Z,10.31
2022-11-19T11:59:33.542Z,10.11
2022-11-19T12:02:05.525Z,9.09
2022-11-19T12:04:33.567Z,10.71
2022-11-19T12:07:03.499Z,10.39
2022-11-19T12:09:33.591Z,9.88
2022-11-19T12:12:09.176Z,9.98
2022-11-19T12:14:36.193Z,10.34
2022-11-19T12:17:09.695Z,10.56
2022-11-19T12:19:37.142Z,11.12
2022-11-19T12:22:09.909Z,11.14
2022-11-19T12:24:41.244Z,10.68
2022-11-19T12:27:27.363Z,10.37
2022-11-19T12:30:02.290Z,10.09
2022-11-19T12:32:35.657Z,9.24
2022-11-19T12:35:04.798Z,9.77
2022-11-19T12:37:41.662Z,10.27
2022-11-19T12:40:30.061Z,9.84
2022-11-19T12:43:01.494Z,10.07
2022-11-19T12:45:36.856Z,9.52
2022-11-19T12:48:22.913Z,8.01
2022-11-19T12:51:05.134Z,9.51
2022-11-19T12:53:32.462Z,9.68
2022-11-19T12:55:59.520Z,10.20
2022-11-19T12:58:45.444Z,10.22
2022-11-19T13:01:13.779Z,9.62
2022-11-19T13:03:50.208Z,10.91
2022-11-19T13:06:22.851Z,11.30
2022-11-19T13:08:51.663Z,10.65
2022-11-19T13:11:36.542Z,11.25
2022-11-19T13:14:09.648Z,11.47
2022-11-19T13:16:37.038Z,10.92
2022-11-19T13:19:13.291Z,11.60
2022-11-19T13:21:43.712Z,11.04
2022-11-19T13:24:38.108Z,10.37
2022-11-19T13:27:06.548Z,10.50
2022-11-19T13:29:33.862Z,11.42
2022-11-19T13:32:19.367Z,12.00
2022-11-19T13:34:59.715Z,11.75
2022-11-19T13:37:44.321Z,11.97
2022-11-19T13:40:17.916Z,11.93
2022-11-19T13:43:30.506Z,11.04
2022-11-19T13:45:53.500Z,11.01
2022-11-19T13:48:25.021Z,11.17
2022-11-19T13:50:52.459Z,11.42
2022-11-19T13:53:26.346Z,11.48
2022-11-19T13:55:57.267Z,11.72
2022-11-19T13:58:24.401Z,10.79
2022-11-19T14:01:02.917Z,11.67
2022-11-19T14:03:35.868Z,12.01
2022-11-19T14:06:02.899Z,12.35
2022-11-19T14:08:51.633Z,11.80
2022-11-19T14:11:37.742Z,10.12
2022-11-19T14:14:07.630Z,11.12
2022-11-19T14:17:01.830Z,11.99
2022-11-19T14:19:47.828Z,11.79
2022-11-19T14:23:09.293Z,11.89
2022-11-19T14:26:05.034Z,12.16
2022-11-19T14:28:51.325Z,11.86
2022-11-19T14:31:19.530Z,11.57
2022-11-19T14:33:46.909Z,11.35
2022-11-19T14:36:21.122Z,11.28
2022-11-19T14:38:50.101Z,11.61
2022-11-19T14:41:18.641Z,12.45
2022-11-19T14:44:07.940Z,12.75
2022-11-19T14:46:47.954Z,12.99
2022-11-19T14:49:22.053Z,12.02
2022-11-19T14:51:54.164Z,12.39
2022-11-19T14:54:30.063Z,12.62
2022-11-19T14:57:00.034Z,13.04
2022-11-19T14:59:27.520Z,12.71
2022-11-19T15:01:54.620Z,12.88
2022-11-19T15:04:22.833Z,13.09
2022-11-19T15:06:50.321Z,12.83
2022-11-19T15:09:36.403Z,12.29
2022-11-19T15:12:03.797Z,12.69
2022-11-19T15:15:01.051Z,12.76
2022-11-19T15:17:28.522Z,12.76
2022-11-19T15:20:07.816Z,12.73
2022-11-19T15:22:38.288Z,12.84
2022-11-19T15:25:05.415Z,12.61
2022-11-19T15:27:32.480Z,12.48
2022-11-19T15:30:29.085Z,12.48
2022-11-19T15:32:59.114Z,12.89
2022-11-19T15:35:26.438Z,12.88
2022-11-19T15:37:54.733Z,12.12
2022-11-19T15:40:28.190Z,11.53
2022-11-19T15:43:01.548Z,12.36
2022-11-19T15:45:29.953Z,12.88
2022-11-19T15:47:59.682Z,11.53
2022-11-19T15:50:27.846Z,11.48
2022-11-19T15:53:01.953Z,11.28
2022-11-19T15:55:30.953Z,10.59
2022-11-19T15:58:02.582Z,9.80
2022-11-19T16:00:29.977Z,9.90
2022-11-19T16:02:57.372Z,9.40
2022-11-19T16:05:24.653Z,8.40
2022-11-19T16:07:51.841Z,7.55
2022-11-19T16:10:28.183Z,7.04
2022-11-19T16:13:15.041Z,7.03
2022-11-19T16:16:10.593Z,6.63
2022-11-19T16:18:47.641Z,6.97
2022-11-19T16:21:17.493Z,6.95
2022-11-19T16:24:04.624Z,6.50
2022-11-19T16:26:35.735Z,6.92
2022-11-19T16:29:02.859Z,6.96
2022-11-19T16:31:30.790Z,7.56
2022-11-19T16:33:58.920Z,7.39
2022-11-19T16:36:30.100Z,6.65
2022-11-19T16:38:57.532Z,7.31
2022-11-19T16:41:43.544Z,7.01
2022-11-19T16:44:17.137Z,7.35
2022-11-19T16:46:45.070Z,6.81
2022-11-19T16:49:29.050Z,7.47
2022-11-19T16:51:58.082Z,7.22
2022-11-19T16:54:45.841Z,7.77
2022-11-19T16:57:13.879Z,7.47
2022-11-19T16:59:41.608Z,7.26
2022-11-19T17:02:12.699Z,7.81
2022-11-19T17:04:41.334Z,6.44
2022-11-19T17:07:11.866Z,6.12
2022-11-19T17:09:42.608Z,6.05
2022-11-19T17:12:21.959Z,6.63
2022-11-19T17:14:51.286Z,6.39
2022-11-19T17:17:29.281Z,6.79
2022-11-19T17:19:58.202Z,6.05
2022-11-19T17:22:31.195Z,5.84
2022-11-19T17:25:00.035Z,6.82
2022-11-19T17:27:28.767Z,6.78
2022-11-19T17:30:16.669Z,7.51
2022-11-19T17:32:48.180Z,6.57
2022-11-19T17:35:34.398Z,6.74
2022-11-19T17:38:13.840Z,7.12
2022-11-19T17:40:48.396Z,6.52
2022-11-19T17:43:35.061Z,6.31
2022-11-19T17:46:02.221Z,6.47
2022-11-19T17:48:29.781Z,6.52
2022-11-19T17:50:57.995Z,6.50
2022-11-19T17:53:25.556Z,6.56
2022-11-19T17:55:54.069Z,6.63
2022-11-19T17:58:21.515Z,7.64
2022-11-19T18:00:48.780Z,7.20
2022-11-19T18:03:16.425Z,6.01
2022-11-19T18:05:45.954Z,7.19
2022-11-19T18:08:13.704Z,6.75
2022-11-19T18:10:45.464Z,6.64
2022-11-19T18:13:13.227Z,6.66
2022-11-19T18:15:40.778Z,7.54
2022-11-19T18:18:08.074Z,7.72
2022-11-19T18:20:35.191Z,7.30
2022-11-19T18:23:02.817Z,6.85
2022-11-19T18:25:30.291Z,7.04
2022-11-19T18:27:57.803Z,7.02
2022-11-19T18:30:25.745Z,6.89
2022-11-19T18:32:53.095Z,6.88
2022-11-19T18:35:20.583Z,6.79
2022-11-19T18:37:48.688Z,6.63
2022-11-19T18:40:16.047Z,7.01
2022-11-19T18:43:03.612Z,6.80
2022-11-19T18:45:31.463Z,7.11
2022-11-19T18:47:59.029Z,8.09
2022-11-19T18:50:29.831Z,7.71
2022-11-19T18:52:58.026Z,6.72
2022-11-19T18:55:25.352Z,6.62
2022-11-19T18:57:52.903Z,6.89
2022-11-19T19:00:20.794Z,6.70
2022-11-19T19:02:48.260Z,6.62
2022-11-19T19:05:15.426Z,7.42
2022-11-19T19:07:43.021Z,7.32
2022-11-19T19:10:11.094Z,7.75
2022-11-19T19:12:39.163Z,8.10
2022-11-19T19:15:07.434Z,8.14
2022-11-19T19:17:34.985Z,8.21
2022-11-19T19:20:02.715Z,8.27
2022-11-19T19:22:30.935Z,8.60
2022-11-19T19:24:58.699Z,8.33
2022-11-19T19:27:26.403Z,8.65
2022-11-19T19:29:54.977Z,8.79
2022-11-19T19:32:22.668Z,8.01
2022-11-19T19:34:50.949Z,8.97
2022-11-19T19:37:18.831Z,8.95
2022-11-19T19:39:46.703Z,7.79
2022-11-19T19:42:14.254Z,9.05
2022-11-19T19:44:42.265Z,7.80
2022-11-19T19:47:10.148Z,8.74
2022-11-19T19:49:39.031Z,8.13
2022-11-19T19:52:07.283Z,7.10
2022-11-19T19:54:35.088Z,7.49
2022-11-19T19:57:02.650Z,8.10
2022-11-19T19:59:30.343Z,7.43
2022-11-19T20:01:57.860Z,7.02
2022-11-19T20:04:25.846Z,7.01
2022-11-19T20:06:54.556Z,6.03
2022-11-19T20:09:22.277Z,6.46
2022-11-19T20:11:50.225Z,5.74
2022-11-19T20:14:17.792Z,5.95
2022-11-19T20:16:45.390Z,6.61
2022-11-19T20:19:14.402Z,6.50
2022-11-19T20:21:42.238Z,5.82
2022-11-19T20:24:13.719Z,6.13
2022-11-19T20:26:42.698Z,6.30
2022-11-19T20:29:13.221Z,6.96
2022-11-19T20:31:41.158Z,7.18
2022-11-19T20:34:09.862Z,6.41
2022-11-19T20:36:37.521Z,6.83
2022-11-19T20:39:05.256Z,7.56
2022-11-19T20:41:52.019Z,5.81
2022-11-19T20:44:25.822Z,6.78
2022-11-19T20:46:56.088Z,5.88
2022-11-19T20:49:25.259Z,6.23
2022-11-19T20:51:53.077Z,6.83
2022-11-19T20:54:20.661Z,7.30
2022-11-19T20:56:49.288Z,6.97
2022-11-19T20:59:17.221Z,6.91
2022-11-19T21:01:44.903Z,6.20
2022-11-19T21:04:12.894Z,5.37
2022-11-19T21:06:43.715Z,5.56
2022-11-19T21:09:11.091Z,5.68
2022-11-19T21:11:39.308Z,5.07
2022-11-19T21:14:06.927Z,4.53
2022-11-19T21:16:34.439Z,5.19
2022-11-19T21:19:02.068Z,5.84
2022-11-19T21:21:29.876Z,5.20
2022-11-19T21:23:57.587Z,6.21
2022-11-19T21:26:25.722Z,6.91
2022-11-19T21:28:54.190Z,6.24
2022-11-19T21:31:22.208Z,6.85
2022-11-19T21:33:52.077Z,6.64
2022-11-19T21:36:19.736Z,6.06
2022-11-19T21:38:47.215Z,5.81
2022-11-19T21:41:14.804Z,5.70
2022-11-19T21:43:42.292Z,6.24
2022-11-19T21:46:09.403Z,5.93
2022-11-19T21:48:37.253Z,6.15
2022-11-19T21:51:07.861Z,6.92
2022-11-19T21:53:35.463Z,6.37
2022-11-19T21:56:02.723Z,7.20
2022-11-19T21:58:30.297Z,6.47
2022-11-19T22:00:58.462Z,6.82
2022-11-19T22:03:26.348Z,6.54
2022-11-19T22:06:01.817Z,7.21
2022-11-19T22:08:30.206Z,6.91
2022-11-19T22:10:57.376Z,7.40
2022-11-19T22:13:28.643Z,7.59
2022-11-19T22:16:00.148Z,7.62
2022-11-19T22:18:27.262Z,8.38
2022-11-19T22:21:02.354Z,8.17
2022-11-19T22:23:29.760Z,8.24
2022-11-19T22:25:56.882Z,6.95
2022-11-19T22:28:23.985Z,7.77
2022-11-19T22:30:52.033Z,6.79
2022-11-19T22:33:19.138Z,7.01
2022-11-19T22:35:46.552Z,7.64
2022-11-19T22:38:14.285Z,7.90
2022-11-19T22:40:41.403Z,8.21
2022-11-19T22:43:08.496Z,8.25
2022-11-19T22:45:35.928Z,8.53
2022-11-19T22:48:03.162Z,8.35
2022-11-19T22:50:30.256Z,7.55
2022-11-19T22:52:57.631Z,8.23
2022-11-19T22:55:24.724Z,7.39
2022-11-19T22:57:51.818Z,7.61
2022-11-19T23:00:36.349Z,7.89
2022-11-19T23:03:03.605Z,6.85
2022-11-19T23:05:36.839Z,6.97
2022-11-19T23:08:04.946Z,7.52
2022-11-19T23:10:33.566Z,8.13
2022-11-19T23:13:20.134Z,8.32
2022-11-19T23:16:02.578Z,7.17
2022-11-19T23:18:30.103Z,7.36
2022-11-19T23:21:01.309Z,7.05
2022-11-19T23:23:28.410Z,7.79
2022-11-19T23:25:59.582Z,7.52
2022-11-19T23:28:27.579Z,7.49
2022-11-19T23:30:54.695Z,8.01
2022-11-19T23:33:22.205Z,8.59
2022-11-19T23:35:49.567Z,8.45
2022-11-19T23:38:16.679Z,8.60
2022-11-19T23:40:43.789Z,8.13
2022-11-19T23:43:11.178Z,6.70
2022-11-19T23:45:38.300Z,6.78
2022-11-19T23:48:05.628Z,7.79
2022-11-19T23:50:33.059Z,8.06
2022-11-19T23:53:00.169Z,8.52
2022-11-19T23:55:27.315Z,8.77
2022-11-19T23:57:54.680Z,8.45
